Portada
METAR-TAF:

METAR-TAF

Aeroports :

Labuan, Malàisia

latitud: 05-18N, longitud: 115-15E, altitud: 30 m

Observació

L'informe es va fer fa 20 minuts, a les 03:00 UTC
Vent 3 kt amb direcció variable
Temperatura 31°C
Humitat 71%
Pressió 1008 hPa
Visibilitat 10 km o més
Escasses núvols a una alçada de 1500 ft

METAR: WBKL 300300Z VRB03KT 9999 FEW015 31/25 Q1008

Hora: 11:20 (03:20 UTC)

Pronòstic

L'informe es va fer fa 4 hores i 20 minuts, a les 23:00 UTC
Pronòstic vàlid del 30 a les 00 UTC al 01 a les 00 UTC
Vent 5 kt del Nord
Visibilitat 10 km o més
Escasses núvols a una alçada de 1500 ft

TAF: WBKL 292300Z 3000/0100 35005KT 9999 FEW015

Observacions i pronòstics meteorològics de més de 4000 aeroports (METAR i TAF).

Les estacions disponibles són els punts grocs i vermells al mapa.

Posi el ratolí al punt desitjat per veure el nom de l'estació.

Feu clic per veure les observacions i els pronòstics meteorològics.

Per canviar el mapa: feu clic els botons verds amb una creu de color negre per apropar; al botó verd amb un guió per allunyar la imatge; o en les fletxes verdes per a mapes adjacents.


METAR-TAF: